Time;durP1;ratioP1;P1;durP2;ratioP2;P2;SDS_P1;SDS_P2;PMS_P1;PMS_P2;Temp;Humidity;BMP_temperature;BMP_pressure;BME280_temperature;BME280_humidity;BME280_pressure;Samples;Min_cycle;Max_cycle;Signal;HPM_P1;HPM_P2
2021/06/27 00:02:12;;;;;;;5.60;1.20;;;41.20;89.50;;;;;;5000563;28;20691;-89
2021/06/27 00:04:44;;;;;;;2.15;1.00;;;41.10;88.70;;;;;;4995978;28;20707;-89
2021/06/27 00:07:15;;;;;;;1.55;1.20;;;41.10;87.20;;;;;;5000274;28;20237;-89
2021/06/27 00:09:46;;;;;;;2.08;1.20;;;41.10;86.20;;;;;;4995793;28;20252;-89
2021/06/27 00:12:17;;;;;;;1.15;0.90;;;41.00;88.50;;;;;;4995392;28;20249;-90
2021/06/27 00:14:48;;;;;;;3.35;1.05;;;41.10;85.10;;;;;;4995343;28;20638;-89
2021/06/27 00:17:18;;;;;;;2.20;1.20;;;41.00;86.90;;;;;;4978657;28;20211;-89
2021/06/27 00:19:51;;;;;;;1.67;0.80;;;41.10;82.50;;;;;;4977388;28;20203;-91
2021/06/27 00:22:22;;;;;;;2.45;1.13;;;40.90;80.90;;;;;;4975478;28;20242;-89
2021/06/27 00:24:53;;;;;;;1.67;1.10;;;40.90;83.60;;;;;;4975184;28;20277;-88
2021/06/27 00:27:23;;;;;;;1.60;1.10;;;40.80;84.30;;;;;;4974930;28;20215;-90
2021/06/27 00:29:54;;;;;;;2.72;1.10;;;40.70;84.70;;;;;;4974690;28;20211;-90
2021/06/27 00:32:24;;;;;;;5.57;1.20;;;40.70;84.90;;;;;;4975452;28;20206;-89
2021/06/27 00:34:57;;;;;;;2.80;1.20;;;40.80;85.50;;;;;;4975553;28;20290;-89
2021/06/27 00:37:28;;;;;;;1.98;1.10;;;40.70;85.50;;;;;;4974886;28;20257;-89
2021/06/27 00:39:58;;;;;;;4.53;1.02;;;40.70;83.80;;;;;;4974460;28;20286;-89
2021/06/27 00:42:29;;;;;;;2.17;1.25;;;40.60;87.40;;;;;;4976920;28;20540;-88
2021/06/27 00:45:01;;;;;;;1.55;1.40;;;40.50;83.10;;;;;;4994927;28;20210;-89
2021/06/27 00:47:32;;;;;;;2.55;1.25;;;40.30;85.50;;;;;;4986305;28;20238;-90
2021/06/27 00:50:06;;;;;;;2.00;1.20;;;40.40;86.10;;;;;;4981785;28;20206;-89
2021/06/27 00:52:37;;;;;;;2.90;1.25;;;40.70;84.00;;;;;;4977766;28;20226;-89
2021/06/27 00:55:09;;;;;;;2.17;1.20;;;41.00;84.60;;;;;;4975245;28;20641;-89
2021/06/27 00:57:40;;;;;;;1.13;0.85;;;41.60;84.40;;;;;;4975375;28;20261;-91
2021/06/27 01:00:14;;;;;;;1.13;0.88;;;42.00;81.50;;;;;;4974337;28;20225;-91
2021/06/27 01:02:46;;;;;;;1.67;1.23;;;42.40;83.00;;;;;;4975225;28;20282;-91
2021/06/27 01:05:22;;;;;;;2.58;1.50;;;42.60;82.10;;;;;;4975238;28;20210;-90
2021/06/27 01:07:55;;;;;;;1.15;1.02;;;42.90;84.60;;;;;;4974819;28;20249;-90
2021/06/27 01:10:26;;;;;;;1.42;1.02;;;43.10;82.90;;;;;;4956974;28;20316;-90
2021/06/27 01:12:58;;;;;;;2.55;1.08;;;43.40;78.70;;;;;;4974951;28;20708;-91
2021/06/27 01:15:30;;;;;;;2.10;1.10;;;43.40;79.80;;;;;;4974765;28;20626;-91
2021/06/27 01:18:01;;;;;;;3.70;1.15;;;43.50;80.20;;;;;;4975938;28;20289;-91
2021/06/27 01:20:36;;;;;;;1.98;0.90;;;43.20;78.60;;;;;;4977880;28;20214;-91
2021/06/27 01:23:13;;;;;;;1.65;1.00;;;43.10;75.80;;;;;;4978174;28;20210;-91
2021/06/27 01:25:46;;;;;;;1.52;0.90;;;43.00;75.00;;;;;;4960669;29;20211;-91
2021/06/27 01:28:18;;;;;;;2.00;1.05;;;43.10;75.20;;;;;;4959378;29;20302;-92
2021/06/27 01:30:49;;;;;;;2.20;1.05;;;43.20;76.60;;;;;;4959121;29;20234;-90
2021/06/27 01:33:24;;;;;;;2.25;1.00;;;43.50;75.40;;;;;;4626439;28;9999796;-91
2021/06/27 01:35:55;;;;;;;1.10;0.90;;;43.20;73.40;;;;;;4984358;28;20206;-92
2021/06/27 01:38:31;;;;;;;1.13;0.70;;;43.20;74.40;;;;;;4975159;28;20676;-91
2021/06/27 01:41:03;;;;;;;1.50;1.00;;;43.30;72.70;;;;;;4970454;28;20210;-92
2021/06/27 01:43:35;;;;;;;1.20;0.98;;;43.40;74.60;;;;;;4978032;28;20218;-92
2021/06/27 01:46:07;;;;;;;0.82;0.82;;;43.50;72.60;;;;;;4965782;28;20214;-91
2021/06/27 01:48:40;;;;;;;1.25;0.80;;;43.40;74.10;;;;;;4974542;28;20616;-92
2021/06/27 01:51:10;;;;;;;0.82;0.70;;;43.20;72.10;;;;;;4980583;28;20235;-93
2021/06/27 01:53:45;;;;;;;0.98;0.95;;;43.20;72.00;;;;;;4978118;28;20648;-93
2021/06/27 01:56:15;;;;;;;2.53;0.70;;;43.00;74.70;;;;;;4971908;28;20274;-92
2021/06/27 01:58:50;;;;;;;1.08;0.80;;;43.00;72.10;;;;;;4974425;28;20203;-93
2021/06/27 02:01:27;;;;;;;0.98;0.80;;;42.90;73.30;;;;;;4968585;28;20682;-92
2021/06/27 02:03:58;;;;;;;2.85;0.90;;;42.90;73.00;;;;;;4976754;28;20293;-90
2021/06/27 02:06:30;;;;;;;1.35;1.00;;;43.10;74.10;;;;;;4975653;28;20239;-89
2021/06/27 02:09:06;;;;;;;3.58;1.00;;;43.30;73.30;;;;;;4978573;28;20270;-91
2021/06/27 02:11:37;;;;;;;2.15;1.08;;;43.00;73.30;;;;;;4973005;28;20293;-90
2021/06/27 02:14:09;;;;;;;2.22;1.00;;;42.90;73.70;;;;;;4979404;28;20211;-92
2021/06/27 02:16:40;;;;;;;1.77;0.90;;;42.90;72.80;;;;;;4968481;28;20247;-89
2021/06/27 02:19:11;;;;;;;3.65;1.35;;;43.00;75.40;;;;;;4997069;28;20210;-90
2021/06/27 02:21:43;;;;;;;1.25;1.10;;;43.20;71.70;;;;;;4993948;28;20191;-90
2021/06/27 02:24:16;;;;;;;1.38;0.90;;;43.10;73.40;;;;;;4977778;28;20295;-91
2021/06/27 02:26:47;;;;;;;2.80;1.05;;;43.20;74.70;;;;;;4960957;28;20271;-92
2021/06/27 02:29:20;;;;;;;1.33;1.00;;;42.90;74.40;;;;;;4977375;28;20711;-91
2021/06/27 02:31:51;;;;;;;2.30;1.10;;;42.90;72.70;;;;;;4974147;28;20520;-91
2021/06/27 02:34:22;;;;;;;1.38;0.82;;;42.90;71.60;;;;;;4976636;28;20211;-89
2021/06/27 02:36:54;;;;;;;2.15;1.00;;;42.50;74.30;;;;;;4974208;28;20279;-92
2021/06/27 02:39:27;;;;;;;2.33;1.08;;;41.90;73.60;;;;;;4971979;28;20699;-92
2021/06/27 02:41:58;;;;;;;1.75;1.00;;;40.80;76.70;;;;;;4967953;28;20202;-92
2021/06/27 02:44:30;;;;;;;4.53;1.08;;;39.60;76.90;;;;;;4976833;28;20217;-91
2021/06/27 02:47:01;;;;;;;1.42;0.93;;;38.80;76.60;;;;;;4977816;28;20267;-90
2021/06/27 02:49:33;;;;;;;2.00;1.00;;;38.10;78.20;;;;;;4977987;28;20239;-91
2021/06/27 02:52:04;;;;;;;3.15;1.10;;;37.70;80.80;;;;;;4973504;28;20246;-91
2021/06/27 02:54:36;;;;;;;2.58;0.95;;;37.30;79.10;;;;;;4959857;28;20275;-90
2021/06/27 02:57:08;;;;;;;1.35;1.10;;;36.90;78.90;;;;;;4966321;28;20731;-90
2021/06/27 02:59:39;;;;;;;2.92;1.10;;;36.60;80.00;;;;;;4973536;28;20656;-90
2021/06/27 03:02:10;;;;;;;1.00;0.90;;;36.30;82.20;;;;;;4975589;28;20207;-91
2021/06/27 03:04:41;;;;;;;4.18;1.23;;;36.00;84.20;;;;;;4957808;28;20707;-91
2021/06/27 03:07:12;;;;;;;2.53;1.23;;;35.70;84.10;;;;;;4977151;28;20250;-91
2021/06/27 03:09:45;;;;;;;2.28;1.40;;;35.50;86.00;;;;;;4976758;28;20254;-90
2021/06/27 03:12:16;;;;;;;2.75;1.25;;;35.20;88.20;;;;;;4977978;28;20211;-91
2021/06/27 03:14:48;;;;;;;3.47;1.30;;;35.00;89.40;;;;;;4969432;28;20212;-90
2021/06/27 03:17:19;;;;;;;4.18;1.60;;;34.70;90.20;;;;;;4976279;28;20211;-90
2021/06/27 03:19:50;;;;;;;1.63;1.25;;;34.40;90.70;;;;;;4976350;28;20207;-92
2021/06/27 03:22:22;;;;;;;3.97;1.98;;;34.20;90.20;;;;;;4977618;28;20254;-90
2021/06/27 03:24:55;;;;;;;3.45;1.95;;;33.90;92.00;;;;;;4977879;28;20219;-91
2021/06/27 03:27:26;;;;;;;2.72;2.17;;;33.70;92.60;;;;;;4976659;28;20524;-90
2021/06/27 03:29:57;;;;;;;2.08;1.88;;;33.50;93.40;;;;;;4963721;28;20637;-90
2021/06/27 03:32:28;;;;;;;3.63;1.80;;;33.30;93.50;;;;;;4997048;28;20218;-90
2021/06/27 03:34:59;;;;;;;2.90;2.20;;;33.10;94.60;;;;;;4997203;28;20241;-91
2021/06/27 03:37:31;;;;;;;4.35;2.10;;;32.90;95.10;;;;;;4996886;28;20722;-88
2021/06/27 03:40:05;;;;;;;2.35;2.00;;;32.70;95.60;;;;;;4995566;28;20252;-90
2021/06/27 03:42:36;;;;;;;4.82;2.05;;;32.50;95.80;;;;;;4996511;28;20249;-91
2021/06/27 03:45:08;;;;;;;3.58;2.10;;;32.30;96.00;;;;;;4995953;28;20225;-89
2021/06/27 03:47:40;;;;;;;5.35;2.17;;;32.00;96.50;;;;;;4986404;28;20309;-89
2021/06/27 03:50:12;;;;;;;2.88;2.00;;;31.80;97.40;;;;;;4975652;28;20245;-89
2021/06/27 03:52:42;;;;;;;3.83;2.00;;;31.70;98.00;;;;;;4977790;28;20211;-89
2021/06/27 03:55:18;;;;;;;2.53;2.15;;;31.50;98.70;;;;;;4977688;28;20214;-90
2021/06/27 03:57:49;;;;;;;2.70;2.22;;;31.40;98.80;;;;;;4977738;28;20218;-90
2021/06/27 04:00:21;;;;;;;5.40;2.80;;;31.30;98.90;;;;;;4976505;28;20242;-89
2021/06/27 04:02:52;;;;;;;2.25;2.05;;;31.10;99.90;;;;;;4978401;28;20211;-89
2021/06/27 04:05:24;;;;;;;5.80;2.30;;;31.10;99.90;;;;;;4962719;28;20668;-90
2021/06/27 04:07:55;;;;;;;6.47;2.42;;;30.90;99.90;;;;;;4978251;28;20199;-90
2021/06/27 04:10:28;;;;;;;3.28;2.30;;;30.80;99.70;;;;;;4978476;28;20615;-89
2021/06/27 04:12:59;;;;;;;3.30;2.20;;;30.70;99.90;;;;;;4980447;28;20210;-90
2021/06/27 04:15:32;;;;;;;8.50;3.03;;;30.60;99.90;;;;;;4983283;28;20225;-89
2021/06/27 04:18:03;;;;;;;7.07;3.60;;;30.50;99.90;;;;;;4990201;28;20199;-91
2021/06/27 04:20:35;;;;;;;9.98;5.30;;;30.30;99.90;;;;;;4988659;28;20298;-91
2021/06/27 04:23:08;;;;;;;5.90;4.32;;;30.10;99.90;;;;;;4977455;28;20283;-90
2021/06/27 04:25:41;;;;;;;8.77;3.70;;;30.00;99.90;;;;;;4976411;28;20199;-91
2021/06/27 04:28:13;;;;;;;13.73;5.57;;;29.90;99.90;;;;;;4970178;29;20295;-90
2021/06/27 04:30:44;;;;;;;6.20;3.10;;;29.70;99.90;;;;;;4956731;28;20302;-90
2021/06/27 04:33:17;;;;;;;5.73;2.90;;;29.40;99.90;;;;;;4983655;28;20310;-90
2021/06/27 04:35:48;;;;;;;6.47;3.50;;;29.20;99.90;;;;;;4976022;28;20211;-91
2021/06/27 04:38:19;;;;;;;5.63;3.37;;;29.10;99.90;;;;;;4978420;28;20241;-90
2021/06/27 04:40:53;;;;;;;7.40;2.30;;;29.00;99.90;;;;;;4975310;28;20239;-91
2021/06/27 04:43:24;;;;;;;7.30;2.70;;;28.90;99.90;;;;;;4984938;28;20228;-89
2021/06/27 04:45:56;;;;;;;5.77;2.40;;;28.80;99.90;;;;;;4995214;28;20651;-88
2021/06/27 04:48:27;;;;;;;3.20;2.27;;;28.80;99.90;;;;;;4995695;28;20214;-91
2021/06/27 04:50:58;;;;;;;6.20;2.30;;;28.70;99.90;;;;;;4996535;28;20257;-91
2021/06/27 04:53:29;;;;;;;3.13;2.13;;;28.60;99.90;;;;;;5006195;28;20238;-90
2021/06/27 04:56:02;;;;;;;6.13;2.50;;;28.60;99.90;;;;;;5000058;28;20215;-91
2021/06/27 04:58:33;;;;;;;2.47;2.00;;;28.50;99.90;;;;;;4967810;28;20211;-90
2021/06/27 05:01:04;;;;;;;3.13;2.50;;;28.40;99.90;;;;;;4960701;28;20622;-90
2021/06/27 05:03:36;;;;;;;3.40;2.40;;;28.40;99.90;;;;;;4960421;29;20574;-90
2021/06/27 05:06:07;;;;;;;7.23;3.57;;;28.30;99.90;;;;;;4953788;28;20278;-90
2021/06/27 05:08:38;;;;;;;6.77;3.87;;;28.20;99.90;;;;;;4985246;28;20211;-90
2021/06/27 05:11:11;;;;;;;4.80;2.60;;;28.20;99.90;;;;;;4982049;28;20372;-88
2021/06/27 05:13:43;;;;;;;5.90;2.60;;;28.10;99.90;;;;;;4979429;28;20238;-90
2021/06/27 05:16:14;;;;;;;6.77;2.60;;;28.10;99.90;;;;;;4981143;28;20230;-90
2021/06/27 05:18:45;;;;;;;4.57;2.40;;;28.00;99.90;;;;;;4979210;28;20731;-90
2021/06/27 05:21:16;;;;;;;4.60;2.17;;;28.00;99.90;;;;;;4978169;28;20218;-89
2021/06/27 05:23:47;;;;;;;6.90;2.07;;;28.00;99.90;;;;;;4981276;28;20280;-90
2021/06/27 05:26:20;;;;;;;2.93;1.97;;;28.00;99.90;;;;;;4959225;29;20271;-89
2021/06/27 05:28:51;;;;;;;3.07;2.10;;;28.10;99.90;;;;;;4959431;29;20231;-89
2021/06/27 05:31:23;;;;;;;3.30;2.00;;;28.00;99.90;;;;;;4958596;29;20302;-89
2021/06/27 05:33:55;;;;;;;3.90;2.00;;;28.10;99.90;;;;;;4942888;29;20239;-89
2021/06/27 05:36:25;;;;;;;3.57;2.03;;;28.00;99.90;;;;;;4971484;28;20237;-89
2021/06/27 05:38:56;;;;;;;2.53;1.80;;;28.00;99.90;;;;;;4978764;28;20191;-89
2021/06/27 05:41:29;;;;;;;2.23;2.00;;;28.00;99.90;;;;;;4979083;28;20226;-89
2021/06/27 05:44:00;;;;;;;2.00;1.87;;;27.90;99.90;;;;;;4979615;28;20590;-88
2021/06/27 05:46:32;;;;;;;2.63;2.13;;;27.90;99.90;;;;;;4979793;28;20211;-90
2021/06/27 05:49:05;;;;;;;2.10;1.90;;;27.80;99.90;;;;;;4979773;28;20286;-89
2021/06/27 05:51:37;;;;;;;2.30;1.90;;;27.80;99.90;;;;;;4979389;28;20238;-89
2021/06/27 05:54:09;;;;;;;4.33;2.17;;;27.80;99.90;;;;;;4979015;28;20261;-89
2021/06/27 05:56:42;;;;;;;2.37;1.93;;;27.70;99.90;;;;;;4978439;28;20215;-89
2021/06/27 05:59:13;;;;;;;1.63;1.53;;;27.70;99.90;;;;;;4978407;28;20235;-89
2021/06/27 06:01:44;;;;;;;6.07;1.97;;;27.70;99.90;;;;;;4977612;28;20577;-89
2021/06/27 06:04:16;;;;;;;2.03;1.87;;;27.60;99.90;;;;;;4978140;28;20211;-89
2021/06/27 06:06:47;;;;;;;2.53;2.20;;;27.60;99.90;;;;;;4977996;28;20210;-90
2021/06/27 06:09:18;;;;;;;3.20;2.63;;;27.50;99.90;;;;;;4978429;28;20303;-90
2021/06/27 06:11:51;;;;;;;3.37;2.53;;;27.50;99.90;;;;;;4978730;28;20652;-89
2021/06/27 06:14:23;;;;;;;4.37;2.40;;;27.50;99.90;;;;;;4979347;28;20211;-89
2021/06/27 06:16:54;;;;;;;3.70;2.23;;;27.40;99.90;;;;;;4982213;28;20211;-89
2021/06/27 06:19:26;;;;;;;6.87;2.60;;;27.40;99.90;;;;;;4978683;28;20214;-90
2021/06/27 06:21:58;;;;;;;2.60;2.03;;;27.40;99.90;;;;;;4961402;28;20226;-89
2021/06/27 06:24:29;;;;;;;2.40;2.20;;;27.30;99.90;;;;;;4979247;28;20221;-89
2021/06/27 06:27:03;;;;;;;3.97;2.40;;;27.30;99.90;;;;;;4979597;28;20349;-88
2021/06/27 06:29:34;;;;;;;2.87;2.30;;;27.20;99.90;;;;;;4961806;28;20265;-90
2021/06/27 06:32:06;;;;;;;4.30;2.13;;;27.20;99.90;;;;;;4976341;28;20231;-90
2021/06/27 06:34:38;;;;;;;5.07;2.63;;;27.10;99.90;;;;;;4977626;28;20221;-91
2021/06/27 06:37:09;;;;;;;4.10;2.40;;;27.10;99.90;;;;;;4978908;28;20210;-88
2021/06/27 06:39:40;;;;;;;4.50;2.70;;;27.10;99.90;;;;;;4980809;28;20228;-87
2021/06/27 06:42:13;;;;;;;4.03;2.57;;;27.00;99.90;;;;;;4978961;28;20259;-91
2021/06/27 06:44:45;;;;;;;5.03;3.17;;;26.90;99.90;;;;;;4961506;29;20215;-90
2021/06/27 06:47:16;;;;;;;5.17;2.70;;;26.80;99.90;;;;;;4963286;29;20246;-91
2021/06/27 06:49:48;;;;;;;5.10;2.80;;;26.80;99.90;;;;;;4961807;29;20200;-88
2021/06/27 06:52:19;;;;;;;4.17;3.03;;;26.80;99.90;;;;;;4960254;28;20283;-91
2021/06/27 06:54:52;;;;;;;4.30;2.90;;;26.70;99.90;;;;;;4958754;29;20204;-90
2021/06/27 06:57:25;;;;;;;3.53;2.77;;;26.60;99.90;;;;;;4968139;28;20269;-89
2021/06/27 06:59:56;;;;;;;3.20;2.83;;;26.60;99.90;;;;;;4977945;28;20211;-89
2021/06/27 07:02:27;;;;;;;4.00;2.50;;;26.50;99.90;;;;;;4977913;28;20211;-89
2021/06/27 07:05:00;;;;;;;4.37;2.53;;;26.50;99.90;;;;;;4978419;28;20628;-89
2021/06/27 07:07:32;;;;;;;4.53;2.50;;;26.50;99.90;;;;;;4979145;28;20625;-89
2021/06/27 07:10:04;;;;;;;2.60;2.40;;;26.50;99.90;;;;;;4978452;28;20270;-89
2021/06/27 07:12:37;;;;;;;3.77;2.37;;;26.50;99.90;;;;;;4979466;28;20258;-89
2021/06/27 07:15:10;;;;;;;2.40;2.20;;;26.50;99.90;;;;;;4978213;28;20219;-88
2021/06/27 07:17:41;;;;;;;2.87;1.97;;;26.40;99.90;;;;;;4978065;28;20241;-90
2021/06/27 07:20:13;;;;;;;3.97;2.10;;;26.40;99.90;;;;;;4960557;28;20230;-89
2021/06/27 07:22:44;;;;;;;2.33;2.10;;;26.30;99.90;;;;;;4978390;28;20222;-89
2021/06/27 07:25:16;;;;;;;3.33;2.13;;;26.30;99.90;;;;;;4977986;28;20219;-89
2021/06/27 07:27:51;;;;;;;3.63;2.30;;;26.30;99.90;;;;;;4977735;28;20638;-89
2021/06/27 07:30:23;;;;;;;2.53;2.33;;;26.30;99.90;;;;;;4979000;28;20241;-89
2021/06/27 07:32:54;;;;;;;3.33;2.10;;;26.30;99.90;;;;;;4992504;28;20234;-89
2021/06/27 07:35:25;;;;;;;4.73;2.20;;;26.30;99.90;;;;;;5001906;28;20246;-91
2021/06/27 07:37:57;;;;;;;3.20;2.07;;;26.30;99.90;;;;;;5017109;28;20206;-90
2021/06/27 07:40:28;;;;;;;7.17;2.43;;;26.20;99.90;;;;;;5001917;28;20206;-90
2021/06/27 07:43:01;;;;;;;5.03;2.20;;;26.10;99.90;;;;;;4998709;28;20218;-89
2021/06/27 07:45:34;;;;;;;3.47;2.27;;;26.10;99.90;;;;;;4996977;28;20250;-89
2021/06/27 07:48:06;;;;;;;3.13;2.33;;;26.10;99.90;;;;;;4998046;28;20225;-89
2021/06/27 07:50:37;;;;;;;2.40;2.20;;;26.00;99.90;;;;;;4995769;28;20259;-88
2021/06/27 07:53:08;;;;;;;3.10;2.13;;;26.00;99.90;;;;;;4996277;28;20237;-90
2021/06/27 07:55:40;;;;;;;4.30;2.30;;;25.90;99.90;;;;;;4995786;28;20210;-88
2021/06/27 07:58:12;;;;;;;3.83;2.33;;;25.90;99.90;;;;;;4995405;28;20214;-88
2021/06/27 08:00:45;;;;;;;3.07;2.30;;;25.80;99.90;;;;;;4979192;28;20335;-88
2021/06/27 08:03:15;;;;;;;3.60;2.40;;;25.70;99.90;;;;;;4996909;28;20198;-88
2021/06/27 08:05:47;;;;;;;6.60;2.17;;;25.70;99.90;;;;;;4996785;28;20198;-88
2021/06/27 08:08:18;;;;;;;3.47;2.33;;;25.70;99.90;;;;;;4957310;29;20219;-88
2021/06/27 08:10:49;;;;;;;2.47;2.23;;;25.70;99.90;;;;;;4959196;29;20207;-88
2021/06/27 08:13:22;;;;;;;2.43;2.23;;;25.70;99.90;;;;;;4959086;29;20250;-88
2021/06/27 08:15:57;;;;;;;4.40;2.17;;;25.70;99.90;;;;;;4957319;29;20310;-89
2021/06/27 08:18:28;;;;;;;2.50;2.30;;;25.60;99.90;;;;;;4974443;28;20198;-89
2021/06/27 08:21:03;;;;;;;6.43;2.20;;;25.60;99.90;;;;;;4974924;28;20281;-88
2021/06/27 08:23:35;;;;;;;5.93;2.40;;;25.60;99.90;;;;;;4976756;28;20233;-88
2021/06/27 08:26:06;;;;;;;4.03;2.10;;;25.60;99.90;;;;;;4976184;28;20346;-88
2021/06/27 08:28:40;;;;;;;2.50;2.27;;;25.60;99.90;;;;;;4975854;28;20214;-88
2021/06/27 08:31:11;;;;;;;7.60;2.60;;;25.50;99.90;;;;;;4974761;28;20206;-88
2021/06/27 08:33:42;;;;;;;2.37;2.00;;;25.50;99.90;;;;;;4976532;28;20698;-89
2021/06/27 08:36:13;;;;;;;2.50;2.30;;;25.50;99.90;;;;;;4974845;28;20702;-88
2021/06/27 08:38:44;;;;;;;4.17;2.23;;;25.50;99.90;;;;;;4974991;28;20213;-88
2021/06/27 08:41:17;;;;;;;5.00;2.17;;;25.50;99.90;;;;;;4973929;28;20969;-88
2021/06/27 08:43:50;;;;;;;2.83;2.27;;;25.40;99.90;;;;;;4975007;28;20310;-88
2021/06/27 08:46:23;;;;;;;3.30;2.43;;;25.40;99.90;;;;;;4974897;28;20211;-88
2021/06/27 08:48:56;;;;;;;2.97;2.67;;;25.30;99.90;;;;;;4966859;28;20727;-89
2021/06/27 08:51:28;;;;;;;4.13;2.20;;;25.30;99.90;;;;;;4974310;28;20231;-88
2021/06/27 08:54:00;;;;;;;4.80;2.80;;;25.20;99.90;;;;;;4957869;28;20235;-88
2021/06/27 08:56:31;;;;;;;5.43;2.40;;;25.20;99.90;;;;;;4975621;28;20241;-89
2021/06/27 08:59:04;;;;;;;2.63;2.43;;;25.10;99.90;;;;;;4975365;28;20258;-89
2021/06/27 09:01:36;;;;;;;3.07;2.80;;;25.00;99.90;;;;;;4974693;28;20210;-89
2021/06/27 09:04:09;;;;;;;3.93;2.87;;;24.90;99.90;;;;;;4975269;28;20215;-89
2021/06/27 09:06:41;;;;;;;4.07;2.60;;;24.80;99.90;;;;;;4975413;28;20306;-88
2021/06/27 09:09:14;;;;;;;6.87;2.63;;;24.70;99.90;;;;;;4975196;28;20219;-89
2021/06/27 09:12:00;;;;;;;3.67;2.87;;;24.70;99.90;;;;;;4958774;28;20203;-89
2021/06/27 09:14:42;;;;;;;4.43;2.97;;;24.70;99.90;;;;;;4975156;28;20238;-88
2021/06/27 09:17:15;;;;;;;3.87;3.10;;;24.50;99.90;;;;;;4975642;28;20246;-89
2021/06/27 09:20:05;;;;;;;4.57;3.20;;;24.50;99.90;;;;;;4979625;28;20203;-89
2021/06/27 09:22:38;;;;;;;2.93;2.73;;;24.40;99.90;;;;;;4958622;28;20290;-88
2021/06/27 09:25:21;;;;;;;4.87;3.57;;;24.40;99.90;;;;;;4976149;28;20230;-89
2021/06/27 09:28:05;;;;;;;4.00;3.50;;;24.30;99.90;;;;;;4977476;28;20211;-87
2021/06/27 09:30:39;;;;;;;5.60;3.20;;;24.30;99.90;;;;;;4976747;28;20241;-88
2021/06/27 09:33:13;;;;;;;5.57;3.20;;;24.30;99.90;;;;;;4982865;28;20230;-89
2021/06/27 09:35:51;;;;;;;4.30;3.50;;;24.20;99.90;;;;;;4988148;28;20230;-89
2021/06/27 09:38:29;;;;;;;6.47;3.37;;;24.20;99.90;;;;;;4988129;28;20242;-89
2021/06/27 09:41:02;;;;;;;3.43;3.13;;;24.10;99.90;;;;;;4983126;28;20230;-88
2021/06/27 09:43:35;;;;;;;4.30;3.33;;;24.10;99.90;;;;;;4994394;28;20210;-89
2021/06/27 09:46:14;;;;;;;7.23;3.00;;;24.00;99.90;;;;;;5000249;28;20239;-88
2021/06/27 09:48:52;;;;;;;4.53;3.17;;;23.90;99.90;;;;;;4996091;28;20230;-88
2021/06/27 09:51:24;;;;;;;4.17;3.30;;;23.90;99.90;;;;;;4987564;28;20206;-89
2021/06/27 09:53:55;;;;;;;3.77;3.47;;;23.90;99.90;;;;;;4988852;28;20239;-89
2021/06/27 09:56:27;;;;;;;3.93;2.90;;;23.90;99.90;;;;;;4987012;28;20247;-88
2021/06/27 09:59:01;;;;;;;3.67;3.00;;;23.80;99.90;;;;;;4980429;28;20234;-88
2021/06/27 10:01:35;;;;;;;3.43;3.13;;;23.80;99.90;;;;;;4978210;28;20229;-89
2021/06/27 10:04:08;;;;;;;5.07;2.83;;;23.80;99.90;;;;;;4984053;28;20206;-89
2021/06/27 10:06:51;;;;;;;3.50;3.20;;;23.70;99.90;;;;;;5000303;28;20269;-88
2021/06/27 10:09:23;;;;;;;4.33;2.90;;;23.70;99.90;;;;;;4999161;28;20199;-90
2021/06/27 10:12:04;;;;;;;3.00;2.80;;;23.70;99.90;;;;;;4986524;28;20238;-89
2021/06/27 10:14:55;;;;;;;4.47;3.07;;;23.60;99.90;;;;;;4978478;28;20230;-89
2021/06/27 10:17:29;;;;;;;2.70;2.50;;;23.60;99.90;;;;;;4977773;28;20816;-88
2021/06/27 10:20:00;;;;;;;6.23;3.20;;;23.50;99.90;;;;;;4977014;28;20207;-88
2021/06/27 10:22:34;;;;;;;3.97;2.90;;;23.50;99.90;;;;;;4977700;28;20679;-88
2021/06/27 10:25:06;;;;;;;4.87;2.70;;;23.50;99.90;;;;;;4978294;28;20715;-88
2021/06/27 10:27:38;;;;;;;4.07;3.07;;;23.50;99.90;;;;;;4977246;28;20301;-88
2021/06/27 10:30:11;;;;;;;4.23;3.13;;;23.40;99.90;;;;;;4976483;28;20626;-89
2021/06/27 10:32:43;;;;;;;3.13;2.83;;;23.40;99.90;;;;;;4960368;28;20206;-88
2021/06/27 10:35:16;;;;;;;3.67;2.90;;;23.40;99.90;;;;;;4980197;28;20206;-88
2021/06/27 10:37:48;;;;;;;4.30;3.00;;;23.30;99.90;;;;;;4997129;28;20211;-88
2021/06/27 10:40:19;;;;;;;3.10;2.90;;;23.30;99.90;;;;;;4996326;28;20345;-88
2021/06/27 10:42:58;;;;;;;9.03;3.10;;;23.30;99.90;;;;;;4990328;28;20237;-89
2021/06/27 10:45:31;;;;;;;4.87;3.00;;;23.30;99.90;;;;;;4977528;28;20230;-88
2021/06/27 10:48:24;;;;;;;3.43;2.60;;;23.30;99.90;;;;;;4977494;28;20298;-88
2021/06/27 10:50:55;;;;;;;4.27;2.83;;;23.20;99.90;;;;;;4976515;28;20206;-88
2021/06/27 10:53:26;;;;;;;3.47;2.70;;;23.20;99.90;;;;;;4976348;28;20353;-88
2021/06/27 10:55:59;;;;;;;3.33;2.83;;;23.10;99.90;;;;;;4977279;28;20223;-88
2021/06/27 10:58:38;;;;;;;3.23;2.90;;;23.10;99.90;;;;;;4976720;28;20222;-88
2021/06/27 11:01:14;;;;;;;3.50;3.20;;;23.10;99.90;;;;;;4975770;28;20238;-88
2021/06/27 11:03:48;;;;;;;4.10;3.20;;;23.10;99.90;;;;;;4976697;28;20672;-88
2021/06/27 11:06:38;;;;;;;3.67;2.70;;;23.10;99.90;;;;;;4976072;28;20269;-88
2021/06/27 11:09:36;;;;;;;3.20;2.87;;;23.00;99.90;;;;;;4976389;28;20286;-87
2021/06/27 11:12:07;;;;;;;5.63;3.10;;;23.00;99.90;;;;;;4941600;28;20240;-88
2021/06/27 11:14:38;;;;;;;8.13;2.90;;;23.00;99.90;;;;;;4976187;28;20305;-87
2021/06/27 11:17:10;;;;;;;4.77;2.90;;;23.00;99.90;;;;;;4975685;28;20631;-87
2021/06/27 11:19:44;;;;;;;3.00;2.70;;;23.00;99.90;;;;;;4976208;28;20309;-87
2021/06/27 11:22:18;;;;;;;3.60;3.10;;;22.90;99.90;;;;;;4975721;28;20216;-87
2021/06/27 11:24:50;;;;;;;3.50;3.20;;;22.90;99.90;;;;;;4975990;28;20652;-87
2021/06/27 11:27:34;;;;;;;5.57;2.93;;;22.90;99.90;;;;;;4975811;28;20247;-87
2021/06/27 11:30:29;;;;;;;4.33;3.10;;;22.80;99.90;;;;;;4974952;28;20602;-88
2021/06/27 11:33:18;;;;;;;3.63;3.10;;;22.80;99.90;;;;;;4976190;28;20266;-87
2021/06/27 11:35:52;;;;;;;4.10;2.80;;;22.80;99.90;;;;;;4975619;28;20215;-87
2021/06/27 11:38:41;;;;;;;3.77;2.90;;;22.70;99.90;;;;;;4976189;28;20211;-87
2021/06/27 11:41:34;;;;;;;5.03;3.00;;;22.70;99.90;;;;;;4974892;28;20687;-87
2021/06/27 11:44:06;;;;;;;5.30;2.90;;;22.60;99.90;;;;;;4975671;28;20294;-88
2021/06/27 11:46:39;;;;;;;3.47;3.00;;;22.60;99.90;;;;;;4975695;28;20215;-89
2021/06/27 11:49:12;;;;;;;5.20;3.30;;;22.60;99.90;;;;;;4975559;28;20210;-89
2021/06/27 11:51:48;;;;;;;3.50;3.00;;;22.60;99.90;;;;;;4975131;28;20277;-89
2021/06/27 11:54:20;;;;;;;4.97;3.20;;;22.50;99.90;;;;;;4976807;28;20231;-89
2021/06/27 11:57:03;;;;;;;5.00;3.03;;;22.60;99.90;;;;;;4975917;28;20986;-88
2021/06/27 11:59:36;;;;;;;3.93;2.90;;;22.50;99.90;;;;;;4974703;28;20278;-88
2021/06/27 12:02:16;;;;;;;3.40;3.00;;;22.50;99.90;;;;;;4974618;28;20232;-89
2021/06/27 12:04:49;;;;;;;4.07;2.80;;;22.50;99.90;;;;;;4975493;28;20565;-88
2021/06/27 12:07:39;;;;;;;4.60;3.20;;;22.50;99.90;;;;;;4956097;29;20266;-89
2021/06/27 12:10:23;;;;;;;4.00;3.43;;;22.50;99.90;;;;;;4960657;28;20199;-88
2021/06/27 12:12:56;;;;;;;7.37;3.23;;;22.40;99.90;;;;;;4994785;28;20618;-88
2021/06/27 12:15:34;;;;;;;3.83;3.07;;;22.30;99.90;;;;;;4994907;28;20253;-88
2021/06/27 12:18:09;;;;;;;3.70;3.13;;;22.30;99.90;;;;;;4994978;28;20210;-88
2021/06/27 12:20:46;;;;;;;3.93;3.17;;;22.30;99.90;;;;;;4976837;28;20574;-88
2021/06/27 12:23:21;;;;;;;6.50;3.20;;;22.30;99.90;;;;;;4995210;28;20214;-88
2021/06/27 12:25:53;;;;;;;3.67;3.13;;;22.30;99.90;;;;;;4977215;28;20283;-88
2021/06/27 12:28:32;;;;;;;5.20;3.40;;;22.30;99.90;;;;;;4995655;28;20214;-88
2021/06/27 12:31:08;;;;;;;4.30;3.10;;;22.20;99.90;;;;;;4992625;28;20206;-88
2021/06/27 12:33:41;;;;;;;6.77;3.40;;;22.30;99.90;;;;;;4976244;28;20215;-89
2021/06/27 12:36:13;;;;;;;4.60;3.07;;;22.30;99.90;;;;;;4982678;28;20242;-88
2021/06/27 12:38:51;;;;;;;3.70;3.00;;;22.20;99.90;;;;;;4989337;28;20230;-88
2021/06/27 12:41:23;;;;;;;3.80;3.40;;;22.30;99.90;;;;;;4975457;28;20223;-88
2021/06/27 12:43:56;;;;;;;4.87;3.60;;;22.30;99.90;;;;;;4985200;28;20270;-89
2021/06/27 12:46:33;;;;;;;3.40;2.90;;;22.30;99.90;;;;;;4974914;28;20234;-88
2021/06/27 12:49:10;;;;;;;7.90;3.63;;;22.30;99.90;;;;;;4975590;28;20290;-89
2021/06/27 12:51:44;;;;;;;6.07;3.50;;;22.30;99.90;;;;;;4974557;28;20249;-88
2021/06/27 12:54:23;;;;;;;4.87;3.20;;;22.30;99.90;;;;;;4975000;28;20262;-89
2021/06/27 12:57:05;;;;;;;5.17;3.30;;;22.30;99.90;;;;;;4974202;28;20298;-88
2021/06/27 12:59:53;;;;;;;4.13;3.73;;;22.40;99.90;;;;;;4972115;28;20211;-88
2021/06/27 13:02:33;;;;;;;7.37;3.50;;;22.40;99.90;;;;;;4972792;28;20237;-89
2021/06/27 13:05:16;;;;;;;3.83;3.47;;;22.40;99.90;;;;;;4977821;28;20218;-88
2021/06/27 13:08:00;;;;;;;4.20;3.20;;;22.40;99.90;;;;;;4981267;28;20237;-88
2021/06/27 13:10:33;;;;;;;5.87;3.43;;;22.50;99.90;;;;;;4973584;28;20738;-87
2021/06/27 13:13:05;;;;;;;5.23;3.30;;;22.50;99.90;;;;;;4974169;28;20234;-88
2021/06/27 13:15:49;;;;;;;4.00;3.53;;;22.50;99.90;;;;;;4960937;28;20244;-88
2021/06/27 13:18:21;;;;;;;3.77;3.10;;;22.50;99.90;;;;;;4978459;28;20222;-88